METAR AND TAF INFORMATION
METAR FOR LIPY
ADDS - METARS form results

(0309 UTC 14 July 2020)
Data provider http://aviationweather.gov/metar/data/
 
METAR text: LIPY 140250Z AUTO 19003KT 9999 NCD 16/12 Q1015
Conditions at: LIPY (FALCONARA (IT-AF, IT) observed 0250 UTC 14 July 2020
Temperature: 16.0°C (61°F)
Dewpoint: 12.0°C (54°F) [RH = 77%]
Pressure (altimeter): 29.97 inches Hg (1015.0 mb)
Winds: from the S (190 degrees) at 3 MPH (3 knots; 1.5 m/s)
Visibility: 6 or more miles (10+ km)
Ceiling: at least 12,000 feet AGL
Clouds: sky clear below 12,000 feet AGL
Weather: no significant weather observed at this time

METAR text: LIPY 140220Z AUTO 19003KT 9999 NCD 17/12 Q1015
Conditions at: LIPY (FALCONARA (IT-AF, IT) observed 0220 UTC 14 July 2020
Temperature: 17.0°C (63°F)
Dewpoint: 12.0°C (54°F) [RH = 72%]
Pressure (altimeter): 29.97 inches Hg (1015.0 mb)
Winds: from the S (190 degrees) at 3 MPH (3 knots; 1.5 m/s)
Visibility: 6 or more miles (10+ km)
Ceiling: at least 12,000 feet AGL
Clouds: sky clear below 12,000 feet AGL
Weather: no significant weather observed at this time

Forecast for: LIPY (FALCONARA (IT-AF, IT)
Text: TAF LIPY 132300Z 1400/1424 36008KT CAVOK
Forecast period: 0000 UTC 14 July 2020 to 0000 UTC 15 July 2020
Forecast type: FROM: standard forecast or significant change
Winds: from the N (360 degrees) at 9 MPH (8 knots; 4.1 m/s)
Visibility: 6 or more miles 10+ km)
Ceiling: unknown
Clouds: missing
Weather: NSW  (no significant weather)
Text: BECMG
Forecast period: 0000 UTC 14 July 2020 to 0000 UTC 15 July 2020
Forecast type: FROM: standard forecast or significant change
Visibility: missing
Ceiling: unknown
Clouds: missing
Weather: no significant weather forecast for this period

 AIRPORT MAP

 RUNWAY INFORMATION
Runway 04 Runway length 9718 ft Runway width 148 ft
Runway elevation 47 ft Runway displaced threshold 641 ft Runway heading 45
Runway 22 Runway length 9718 ft Runway width 148 ft
Runway elevation 29 ft Runway displaced threshold 492 ft Runway heading 225

 AIRPORT FREQUENCIES
Type APP Name ROMAGNA AP Frequency 37.975 MHZ
Type APP Name ROMAGNA AP Frequency 118.15 MHZ
Type ATIS Name ATIS Frequency 122.85 MHZ
Type TWR Name TWR Frequency 119.8 MHZ

 AIRPORT NEAR NAVIGATION AIDS
Type VOR-DME Name Ancona Frequency 110650 KHZ
Type NDB Name Ancona Frequency 375 KHZ
Type TACAN Name Falconara Frequency 109800 KHZ
Type NDB Name Falconara Frequency 358 KHZ



Powered by Virtual Airlines Manager [v2.6.2]